sensor_id;sensor_type;location;lat;lon;timestamp;pressure;altitude;pressure_sealevel;temperature;humidity
27613;BME280;15036;48.094;-1.690;2023-05-02T00:00:49;101717.16;;;17.25;52.47
27613;BME280;15036;48.094;-1.690;2023-05-02T00:03:15;101711.19;;;17.35;52.16
27613;BME280;15036;48.094;-1.690;2023-05-02T00:05:41;101712.38;;;17.46;51.94
27613;BME280;15036;48.094;-1.690;2023-05-02T00:08:07;101713.25;;;17.46;52.66
27613;BME280;15036;48.094;-1.690;2023-05-02T00:10:32;101714.44;;;17.63;51.95
27613;BME280;15036;48.094;-1.690;2023-05-02T00:12:58;101718.03;;;17.70;51.85
27613;BME280;15036;48.094;-1.690;2023-05-02T00:15:23;101712.13;;;17.60;52.27
27613;BME280;15036;48.094;-1.690;2023-05-02T00:17:49;101700.88;;;17.55;52.03
27613;BME280;15036;48.094;-1.690;2023-05-02T00:20:15;101697.97;;;17.50;52.49
27613;BME280;15036;48.094;-1.690;2023-05-02T00:22:40;101691.25;;;17.33;52.62
27613;BME280;15036;48.094;-1.690;2023-05-02T00:25:06;101687.88;;;17.24;52.81
27613;BME280;15036;48.094;-1.690;2023-05-02T00:27:32;101695.69;;;17.34;52.75
27613;BME280;15036;48.094;-1.690;2023-05-02T00:29:57;101693.56;;;17.29;52.95
27613;BME280;15036;48.094;-1.690;2023-05-02T00:32:24;101698.84;;;17.38;52.88
27613;BME280;15036;48.094;-1.690;2023-05-02T00:34:49;101701.38;;;17.39;53.18
27613;BME280;15036;48.094;-1.690;2023-05-02T00:37:15;101714.94;;;17.03;54.53
27613;BME280;15036;48.094;-1.690;2023-05-02T00:39:40;101711.66;;;16.62;55.88
27613;BME280;15036;48.094;-1.690;2023-05-02T00:42:05;101710.53;;;16.89;54.93
27613;BME280;15036;48.094;-1.690;2023-05-02T00:44:31;101704.63;;;16.72;55.17
27613;BME280;15036;48.094;-1.690;2023-05-02T00:47:00;101716.72;;;16.71;54.94
27613;BME280;15036;48.094;-1.690;2023-05-02T00:49:25;101705.66;;;16.84;54.75
27613;BME280;15036;48.094;-1.690;2023-05-02T00:51:52;101705.63;;;16.97;54.17
27613;BME280;15036;48.094;-1.690;2023-05-02T00:54:18;101701.66;;;16.74;54.67
27613;BME280;15036;48.094;-1.690;2023-05-02T00:56:44;101700.28;;;17.02;53.65
27613;BME280;15036;48.094;-1.690;2023-05-02T00:59:11;101693.97;;;16.95;54.03
27613;BME280;15036;48.094;-1.690;2023-05-02T01:01:49;101705.00;;;16.95;53.90
27613;BME280;15036;48.094;-1.690;2023-05-02T01:10:20;101719.50;;;15.80;57.25
27613;BME280;15036;48.094;-1.690;2023-05-02T01:12:59;101713.81;;;16.14;56.66
27613;BME280;15036;48.094;-1.690;2023-05-02T01:15:27;101715.25;;;16.62;55.19
27613;BME280;15036;48.094;-1.690;2023-05-02T01:17:54;101723.28;;;16.70;54.95
27613;BME280;15036;48.094;-1.690;2023-05-02T01:20:23;101720.47;;;16.96;54.37
27613;BME280;15036;48.094;-1.690;2023-05-02T01:22:53;101712.63;;;16.93;54.71
27613;BME280;15036;48.094;-1.690;2023-05-02T01:25:46;101713.91;;;16.97;54.83
27613;BME280;15036;48.094;-1.690;2023-05-02T01:28:30;101705.72;;;17.22;54.01
27613;BME280;15036;48.094;-1.690;2023-05-02T01:31:02;101708.34;;;17.04;54.56
27613;BME280;15036;48.094;-1.690;2023-05-02T01:33:29;101705.09;;;17.20;54.85
27613;BME280;15036;48.094;-1.690;2023-05-02T01:35:59;101708.25;;;17.23;54.73
27613;BME280;15036;48.094;-1.690;2023-05-02T01:38:26;101705.56;;;17.10;55.58
27613;BME280;15036;48.094;-1.690;2023-05-02T01:40:53;101704.53;;;16.98;56.20
27613;BME280;15036;48.094;-1.690;2023-05-02T01:43:19;101708.16;;;17.43;55.50
27613;BME280;15036;48.094;-1.690;2023-05-02T01:45:47;101701.97;;;17.48;55.39
27613;BME280;15036;48.094;-1.690;2023-05-02T01:48:15;101699.91;;;17.37;55.54
27613;BME280;15036;48.094;-1.690;2023-05-02T01:50:43;101702.91;;;17.35;56.12
27613;BME280;15036;48.094;-1.690;2023-05-02T01:53:10;101703.47;;;17.50;55.98
27613;BME280;15036;48.094;-1.690;2023-05-02T01:55:40;101708.03;;;17.69;55.87
27613;BME280;15036;48.094;-1.690;2023-05-02T01:58:08;101706.47;;;17.49;56.61
27613;BME280;15036;48.094;-1.690;2023-05-02T02:00:35;101712.09;;;17.16;57.71
27613;BME280;15036;48.094;-1.690;2023-05-02T02:03:04;101703.09;;;17.33;57.42
27613;BME280;15036;48.094;-1.690;2023-05-02T02:05:31;101712.16;;;17.54;56.79
27613;BME280;15036;48.094;-1.690;2023-05-02T02:07:57;101711.09;;;17.48;56.69
27613;BME280;15036;48.094;-1.690;2023-05-02T02:10:26;101716.19;;;17.51;56.59
27613;BME280;15036;48.094;-1.690;2023-05-02T02:13:00;101719.53;;;17.66;56.47
27613;BME280;15036;48.094;-1.690;2023-05-02T02:15:34;101722.03;;;17.74;56.43
27613;BME280;15036;48.094;-1.690;2023-05-02T02:18:11;101716.09;;;17.71;56.42
27613;BME280;15036;48.094;-1.690;2023-05-02T02:20:38;101725.97;;;17.85;56.00
27613;BME280;15036;48.094;-1.690;2023-05-02T02:23:07;101725.19;;;17.78;56.12
27613;BME280;15036;48.094;-1.690;2023-05-02T02:25:33;101727.66;;;17.92;56.00
27613;BME280;15036;48.094;-1.690;2023-05-02T02:28:00;101739.59;;;17.86;56.31
27613;BME280;15036;48.094;-1.690;2023-05-02T02:30:26;101735.03;;;17.98;56.04
27613;BME280;15036;48.094;-1.690;2023-05-02T02:32:51;101736.50;;;18.01;55.53
27613;BME280;15036;48.094;-1.690;2023-05-02T02:35:17;101741.84;;;17.96;55.33
27613;BME280;15036;48.094;-1.690;2023-05-02T02:37:49;101746.22;;;18.10;55.15
27613;BME280;15036;48.094;-1.690;2023-05-02T02:40:33;101739.44;;;18.06;55.47
27613;BME280;15036;48.094;-1.690;2023-05-02T02:43:07;101738.75;;;18.10;55.00
27613;BME280;15036;48.094;-1.690;2023-05-02T02:45:48;101747.41;;;17.89;55.55
27613;BME280;15036;48.094;-1.690;2023-05-02T02:48:33;101740.16;;;17.95;55.25
27613;BME280;15036;48.094;-1.690;2023-05-02T02:54:05;101739.16;;;17.52;56.43
27613;BME280;15036;48.094;-1.690;2023-05-02T02:56:45;101741.31;;;17.81;55.76
27613;BME280;15036;48.094;-1.690;2023-05-02T02:59:16;101745.31;;;17.85;55.61
27613;BME280;15036;48.094;-1.690;2023-05-02T03:01:47;101748.63;;;18.00;55.32
27613;BME280;15036;48.094;-1.690;2023-05-02T03:04:15;101751.25;;;17.88;55.63
27613;BME280;15036;48.094;-1.690;2023-05-02T03:06:42;101751.19;;;17.95;55.53
27613;BME280;15036;48.094;-1.690;2023-05-02T03:09:15;101750.06;;;17.78;55.70
27613;BME280;15036;48.094;-1.690;2023-05-02T03:11:43;101754.06;;;17.82;55.67
27613;BME280;15036;48.094;-1.690;2023-05-02T03:14:10;101745.50;;;17.90;55.44
27613;BME280;15036;48.094;-1.690;2023-05-02T03:16:37;101747.00;;;17.92;55.67
27613;BME280;15036;48.094;-1.690;2023-05-02T03:19:04;101739.63;;;17.80;55.48
27613;BME280;15036;48.094;-1.690;2023-05-02T03:21:31;101742.75;;;17.90;55.19
27613;BME280;15036;48.094;-1.690;2023-05-02T03:24:01;101746.38;;;17.90;55.26
27613;BME280;15036;48.094;-1.690;2023-05-02T03:26:27;101745.50;;;17.90;55.18
27613;BME280;15036;48.094;-1.690;2023-05-02T03:28:53;101748.66;;;17.93;54.98
27613;BME280;15036;48.094;-1.690;2023-05-02T03:31:19;101742.88;;;18.01;55.08
27613;BME280;15036;48.094;-1.690;2023-05-02T03:33:45;101753.28;;;17.99;55.18
27613;BME280;15036;48.094;-1.690;2023-05-02T03:36:11;101751.16;;;18.01;55.13
27613;BME280;15036;48.094;-1.690;2023-05-02T03:38:36;101750.03;;;18.09;54.95
27613;BME280;15036;48.094;-1.690;2023-05-02T03:41:02;101749.69;;;17.99;54.62
27613;BME280;15036;48.094;-1.690;2023-05-02T03:43:28;101735.38;;;18.08;54.60
27613;BME280;15036;48.094;-1.690;2023-05-02T03:45:53;101750.56;;;17.93;55.23
27613;BME280;15036;48.094;-1.690;2023-05-02T03:48:19;101752.91;;;17.96;55.12
27613;BME280;15036;48.094;-1.690;2023-05-02T03:50:44;101747.38;;;17.96;54.88
27613;BME280;15036;48.094;-1.690;2023-05-02T03:53:10;101734.81;;;18.00;54.79
27613;BME280;15036;48.094;-1.690;2023-05-02T03:55:42;101743.09;;;18.00;55.05
27613;BME280;15036;48.094;-1.690;2023-05-02T03:58:09;101738.44;;;18.00;54.94
27613;BME280;15036;48.094;-1.690;2023-05-02T04:00:34;101741.94;;;18.14;54.16
27613;BME280;15036;48.094;-1.690;2023-05-02T04:03:01;101740.00;;;18.14;53.91
27613;BME280;15036;48.094;-1.690;2023-05-02T04:05:26;101742.59;;;18.09;54.19
27613;BME280;15036;48.094;-1.690;2023-05-02T04:07:52;101735.44;;;18.02;54.32
27613;BME280;15036;48.094;-1.690;2023-05-02T04:10:17;101741.19;;;18.00;54.39
27613;BME280;15036;48.094;-1.690;2023-05-02T04:12:43;101739.47;;;17.99;54.60
27613;BME280;15036;48.094;-1.690;2023-05-02T04:15:09;101734.97;;;18.05;54.39
27613;BME280;15036;48.094;-1.690;2023-05-02T04:17:35;101736.41;;;18.14;54.08
27613;BME280;15036;48.094;-1.690;2023-05-02T04:20:00;101734.97;;;18.05;54.50
27613;BME280;15036;48.094;-1.690;2023-05-02T04:22:26;101738.94;;;18.15;54.08
27613;BME280;15036;48.094;-1.690;2023-05-02T04:24:52;101732.41;;;18.10;53.99
27613;BME280;15036;48.094;-1.690;2023-05-02T04:27:17;101741.31;;;18.12;54.19
27613;BME280;15036;48.094;-1.690;2023-05-02T04:29:43;101734.69;;;18.13;54.29
27613;BME280;15036;48.094;-1.690;2023-05-02T04:32:09;101735.81;;;18.05;54.09
27613;BME280;15036;48.094;-1.690;2023-05-02T04:34:35;101738.53;;;18.12;53.95
27613;BME280;15036;48.094;-1.690;2023-05-02T04:37:01;101738.34;;;18.07;54.03
27613;BME280;15036;48.094;-1.690;2023-05-02T04:39:26;101735.31;;;18.15;53.52
27613;BME280;15036;48.094;-1.690;2023-05-02T04:41:51;101743.44;;;18.10;53.65
27613;BME280;15036;48.094;-1.690;2023-05-02T04:44:17;101745.09;;;18.17;53.40
27613;BME280;15036;48.094;-1.690;2023-05-02T04:46:42;101740.41;;;18.18;53.10
27613;BME280;15036;48.094;-1.690;2023-05-02T04:49:08;101745.47;;;18.21;53.45
27613;BME280;15036;48.094;-1.690;2023-05-02T04:51:34;101751.56;;;18.05;53.66
27613;BME280;15036;48.094;-1.690;2023-05-02T04:53:59;101755.69;;;18.20;53.55
27613;BME280;15036;48.094;-1.690;2023-05-02T04:56:25;101756.03;;;18.31;53.03
27613;BME280;15036;48.094;-1.690;2023-05-02T04:58:51;101753.25;;;18.06;53.80
27613;BME280;15036;48.094;-1.690;2023-05-02T05:01:16;101760.47;;;18.07;53.98
27613;BME280;15036;48.094;-1.690;2023-05-02T05:03:42;101757.47;;;18.08;53.63
27613;BME280;15036;48.094;-1.690;2023-05-02T05:06:07;101758.09;;;18.10;53.60
27613;BME280;15036;48.094;-1.690;2023-05-02T05:08:33;101767.09;;;18.06;53.85
27613;BME280;15036;48.094;-1.690;2023-05-02T05:10:58;101756.31;;;18.23;53.14
27613;BME280;15036;48.094;-1.690;2023-05-02T05:13:23;101752.78;;;18.09;53.42
27613;BME280;15036;48.094;-1.690;2023-05-02T05:15:49;101756.66;;;18.08;53.34
27613;BME280;15036;48.094;-1.690;2023-05-02T05:18:14;101759.19;;;18.09;53.46
27613;BME280;15036;48.094;-1.690;2023-05-02T05:20:39;101754.38;;;18.23;53.08
27613;BME280;15036;48.094;-1.690;2023-05-02T05:23:05;101757.31;;;18.03;53.60
27613;BME280;15036;48.094;-1.690;2023-05-02T05:25:30;101766.25;;;18.30;53.18
27613;BME280;15036;48.094;-1.690;2023-05-02T05:27:56;101762.53;;;18.18;53.41
27613;BME280;15036;48.094;-1.690;2023-05-02T05:30:23;101759.38;;;18.39;53.29
27613;BME280;15036;48.094;-1.690;2023-05-02T05:32:49;101757.22;;;18.41;53.07
27613;BME280;15036;48.094;-1.690;2023-05-02T05:35:14;101764.31;;;18.31;53.00
27613;BME280;15036;48.094;-1.690;2023-05-02T05:37:40;101769.19;;;18.35;53.23
27613;BME280;15036;48.094;-1.690;2023-05-02T05:40:07;101768.09;;;18.43;52.66
27613;BME280;15036;48.094;-1.690;2023-05-02T05:42:32;101771.69;;;18.43;52.88
27613;BME280;15036;48.094;-1.690;2023-05-02T05:44:58;101762.75;;;18.41;52.88
27613;BME280;15036;48.094;-1.690;2023-05-02T05:47:23;101764.38;;;18.55;52.34
27613;BME280;15036;48.094;-1.690;2023-05-02T05:49:52;101766.03;;;18.56;52.11
27613;BME280;15036;48.094;-1.690;2023-05-02T05:52:18;101774.00;;;18.46;52.44
27613;BME280;15036;48.094;-1.690;2023-05-02T05:54:44;101779.75;;;18.45;52.67
27613;BME280;15036;48.094;-1.690;2023-05-02T05:57:10;101780.06;;;18.61;52.08
27613;BME280;15036;48.094;-1.690;2023-05-02T05:59:35;101779.44;;;18.59;52.27
27613;BME280;15036;48.094;-1.690;2023-05-02T06:02:00;101784.28;;;18.64;52.35
27613;BME280;15036;48.094;-1.690;2023-05-02T06:04:26;101795.75;;;18.67;52.03
27613;BME280;15036;48.094;-1.690;2023-05-02T06:06:52;101799.03;;;18.76;51.94
27613;BME280;15036;48.094;-1.690;2023-05-02T06:09:18;101792.06;;;18.73;52.19
27613;BME280;15036;48.094;-1.690;2023-05-02T06:11:44;101790.88;;;18.87;52.03
27613;BME280;15036;48.094;-1.690;2023-05-02T06:14:10;101793.72;;;18.99;51.68
27613;BME280;15036;48.094;-1.690;2023-05-02T06:16:36;101804.56;;;19.00;51.48
27613;BME280;15036;48.094;-1.690;2023-05-02T06:19:01;101793.97;;;18.97;51.63
27613;BME280;15036;48.094;-1.690;2023-05-02T06:21:26;101799.56;;;19.09;51.50
27613;BME280;15036;48.094;-1.690;2023-05-02T06:23:52;101803.03;;;19.04;51.55
27613;BME280;15036;48.094;-1.690;2023-05-02T06:26:17;101806.72;;;19.17;51.22
27613;BME280;15036;48.094;-1.690;2023-05-02T06:28:43;101821.03;;;19.32;50.87
27613;BME280;15036;48.094;-1.690;2023-05-02T06:31:08;101806.59;;;19.48;50.43
27613;BME280;15036;48.094;-1.690;2023-05-02T06:33:34;101817.38;;;19.38;50.64
27613;BME280;15036;48.094;-1.690;2023-05-02T06:36:00;101816.94;;;19.41;50.51
27613;BME280;15036;48.094;-1.690;2023-05-02T06:38:25;101814.78;;;19.43;50.43
27613;BME280;15036;48.094;-1.690;2023-05-02T06:40:51;101809.91;;;19.56;50.48
27613;BME280;15036;48.094;-1.690;2023-05-02T06:43:17;101805.66;;;19.72;49.86
27613;BME280;15036;48.094;-1.690;2023-05-02T06:45:42;101811.13;;;19.78;49.81
27613;BME280;15036;48.094;-1.690;2023-05-02T06:48:08;101813.56;;;19.86;49.52
27613;BME280;15036;48.094;-1.690;2023-05-02T06:50:34;101810.06;;;19.91;49.17
27613;BME280;15036;48.094;-1.690;2023-05-02T06:53:00;101817.88;;;19.82;49.25
27613;BME280;15036;48.094;-1.690;2023-05-02T06:55:25;101823.94;;;19.73;49.50
27613;BME280;15036;48.094;-1.690;2023-05-02T06:57:51;101820.13;;;19.74;49.38
27613;BME280;15036;48.094;-1.690;2023-05-02T07:00:18;101832.72;;;19.88;49.02
27613;BME280;15036;48.094;-1.690;2023-05-02T07:02:44;101823.72;;;19.93;48.94
27613;BME280;15036;48.094;-1.690;2023-05-02T07:05:10;101822.09;;;19.67;49.23
27613;BME280;15036;48.094;-1.690;2023-05-02T07:07:35;101817.88;;;19.82;48.79
27613;BME280;15036;48.094;-1.690;2023-05-02T07:10:02;101819.75;;;19.70;49.07
27613;BME280;15036;48.094;-1.690;2023-05-02T07:12:27;101808.97;;;19.62;49.14
27613;BME280;15036;48.094;-1.690;2023-05-02T07:14:53;101815.69;;;19.55;49.42
27613;BME280;15036;48.094;-1.690;2023-05-02T07:17:18;101813.66;;;19.80;48.98
27613;BME280;15036;48.094;-1.690;2023-05-02T07:19:44;101813.47;;;19.75;49.00
27613;BME280;15036;48.094;-1.690;2023-05-02T07:22:09;101817.72;;;19.77;48.98
27613;BME280;15036;48.094;-1.690;2023-05-02T07:24:35;101819.34;;;19.67;49.02
27613;BME280;15036;48.094;-1.690;2023-05-02T07:27:00;101821.91;;;19.68;49.41
27613;BME280;15036;48.094;-1.690;2023-05-02T07:29:27;101818.81;;;19.76;49.16
27613;BME280;15036;48.094;-1.690;2023-05-02T07:31:52;101823.78;;;19.86;49.10
27613;BME280;15036;48.094;-1.690;2023-05-02T07:34:18;101812.94;;;19.84;48.81
27613;BME280;15036;48.094;-1.690;2023-05-02T07:36:43;101810.53;;;19.88;48.86
27613;BME280;15036;48.094;-1.690;2023-05-02T07:39:08;101813.88;;;19.78;49.09
27613;BME280;15036;48.094;-1.690;2023-05-02T07:41:34;101807.84;;;19.81;49.27
27613;BME280;15036;48.094;-1.690;2023-05-02T07:44:00;101804.56;;;19.73;49.31
27613;BME280;15036;48.094;-1.690;2023-05-02T07:46:25;101808.09;;;19.80;49.00
27613;BME280;15036;48.094;-1.690;2023-05-02T07:48:50;101802.84;;;19.90;49.21
27613;BME280;15036;48.094;-1.690;2023-05-02T07:51:19;101808.38;;;19.90;49.24
27613;BME280;15036;48.094;-1.690;2023-05-02T07:53:48;101807.09;;;19.93;49.42
27613;BME280;15036;48.094;-1.690;2023-05-02T07:56:15;101815.03;;;20.01;49.27
27613;BME280;15036;48.094;-1.690;2023-05-02T07:58:41;101814.72;;;20.09;49.05
27613;BME280;15036;48.094;-1.690;2023-05-02T08:01:06;101821.34;;;20.08;49.04
27613;BME280;15036;48.094;-1.690;2023-05-02T08:03:32;101824.66;;;20.16;48.47
27613;BME280;15036;48.094;-1.690;2023-05-02T08:05:57;101827.25;;;20.11;48.50
27613;BME280;15036;48.094;-1.690;2023-05-02T08:08:23;101827.94;;;20.25;48.69
27613;BME280;15036;48.094;-1.690;2023-05-02T08:10:48;101818.50;;;20.14;49.22
27613;BME280;15036;48.094;-1.690;2023-05-02T08:13:16;101820.59;;;20.30;48.72
27613;BME280;15036;48.094;-1.690;2023-05-02T08:15:41;101824.81;;;20.33;48.55
27613;BME280;15036;48.094;-1.690;2023-05-02T08:18:07;101825.19;;;20.36;48.42
27613;BME280;15036;48.094;-1.690;2023-05-02T08:20:32;101827.50;;;20.39;48.40
27613;BME280;15036;48.094;-1.690;2023-05-02T08:22:59;101827.53;;;20.51;48.15
27613;BME280;15036;48.094;-1.690;2023-05-02T08:25:24;101822.59;;;20.64;48.09
27613;BME280;15036;48.094;-1.690;2023-05-02T08:27:49;101826.72;;;20.73;47.75
27613;BME280;15036;48.094;-1.690;2023-05-02T08:30:15;101818.63;;;20.72;47.77
27613;BME280;15036;48.094;-1.690;2023-05-02T08:32:41;101819.47;;;20.72;47.57
27613;BME280;15036;48.094;-1.690;2023-05-02T08:35:07;101815.50;;;20.80;46.57
27613;BME280;15036;48.094;-1.690;2023-05-02T08:37:33;101813.09;;;20.84;46.64
27613;BME280;15036;48.094;-1.690;2023-05-02T08:39:59;101805.72;;;21.01;46.64
27613;BME280;15036;48.094;-1.690;2023-05-02T08:42:25;101810.78;;;20.81;47.11
27613;BME280;15036;48.094;-1.690;2023-05-02T08:44:50;101811.41;;;20.83;47.22
27613;BME280;15036;48.094;-1.690;2023-05-02T08:47:17;101812.34;;;20.88;47.41
27613;BME280;15036;48.094;-1.690;2023-05-02T08:49:43;101809.38;;;20.90;47.57
27613;BME280;15036;48.094;-1.690;2023-05-02T08:52:11;101813.84;;;21.02;47.52
27613;BME280;15036;48.094;-1.690;2023-05-02T08:54:37;101799.84;;;21.09;46.84
27613;BME280;15036;48.094;-1.690;2023-05-02T08:57:04;101804.88;;;21.00;47.36
27613;BME280;15036;48.094;-1.690;2023-05-02T08:59:30;101796.78;;;21.22;46.94
27613;BME280;15036;48.094;-1.690;2023-05-02T09:02:06;101787.44;;;21.39;46.41
27613;BME280;15036;48.094;-1.690;2023-05-02T09:04:38;101785.28;;;21.53;46.32
27613;BME280;15036;48.094;-1.690;2023-05-02T09:07:05;101782.84;;;21.56;46.17
27613;BME280;15036;48.094;-1.690;2023-05-02T09:09:33;101784.25;;;21.71;45.87
27613;BME280;15036;48.094;-1.690;2023-05-02T09:11:58;101785.28;;;21.41;46.28
27613;BME280;15036;48.094;-1.690;2023-05-02T09:14:23;101786.63;;;21.79;45.69
27613;BME280;15036;48.094;-1.690;2023-05-02T09:16:49;101769.75;;;21.97;45.60
27613;BME280;15036;48.094;-1.690;2023-05-02T09:19:22;101786.59;;;21.90;45.60
27613;BME280;15036;48.094;-1.690;2023-05-02T09:21:50;101783.66;;;21.97;45.66
27613;BME280;15036;48.094;-1.690;2023-05-02T09:24:19;101780.66;;;22.15;44.74
27613;BME280;15036;48.094;-1.690;2023-05-02T09:27:01;101791.25;;;22.01;45.10
27613;BME280;15036;48.094;-1.690;2023-05-02T09:29:28;101790.31;;;21.96;44.32
27613;BME280;15036;48.094;-1.690;2023-05-02T09:32:03;101789.38;;;22.35;43.75
27613;BME280;15036;48.094;-1.690;2023-05-02T09:34:29;101795.72;;;22.47;43.46
27613;BME280;15036;48.094;-1.690;2023-05-02T09:36:57;101793.34;;;22.56;43.59
27613;BME280;15036;48.094;-1.690;2023-05-02T09:39:25;101808.97;;;22.40;43.34
27613;BME280;15036;48.094;-1.690;2023-05-02T09:41:50;101799.94;;;22.66;42.98
27613;BME280;15036;48.094;-1.690;2023-05-02T09:44:18;101790.47;;;22.51;43.20
27613;BME280;15036;48.094;-1.690;2023-05-02T09:46:48;101801.94;;;22.54;42.68
27613;BME280;15036;48.094;-1.690;2023-05-02T09:49:15;101804.06;;;22.97;42.46
27613;BME280;15036;48.094;-1.690;2023-05-02T09:51:45;101798.41;;;22.92;42.05
27613;BME280;15036;48.094;-1.690;2023-05-02T09:54:12;101803.19;;;23.13;41.71
27613;BME280;15036;48.094;-1.690;2023-05-02T09:56:56;101799.97;;;23.21;40.80
27613;BME280;15036;48.094;-1.690;2023-05-02T09:59:22;101802.94;;;23.14;40.87
27613;BME280;15036;48.094;-1.690;2023-05-02T10:01:55;101805.09;;;23.29;40.64
27613;BME280;15036;48.094;-1.690;2023-05-02T10:04:21;101799.75;;;23.66;40.21
27613;BME280;15036;48.094;-1.690;2023-05-02T10:06:50;101798.53;;;23.78;40.14
27613;BME280;15036;48.094;-1.690;2023-05-02T10:09:16;101801.13;;;23.63;40.25
27613;BME280;15036;48.094;-1.690;2023-05-02T10:11:45;101805.91;;;23.68;39.62
27613;BME280;15036;48.094;-1.690;2023-05-02T10:14:11;101817.03;;;23.63;40.00
27613;BME280;15036;48.094;-1.690;2023-05-02T10:17:00;101807.28;;;24.08;39.16
27613;BME280;15036;48.094;-1.690;2023-05-02T10:19:32;101810.41;;;24.17;38.68
27613;BME280;15036;48.094;-1.690;2023-05-02T10:22:02;101811.59;;;23.99;38.72
27613;BME280;15036;48.094;-1.690;2023-05-02T10:24:30;101805.50;;;24.29;38.24
27613;BME280;15036;48.094;-1.690;2023-05-02T10:26:57;101810.34;;;24.39;38.57
27613;BME280;15036;48.094;-1.690;2023-05-02T10:29:23;101810.69;;;24.42;38.41
27613;BME280;15036;48.094;-1.690;2023-05-02T10:31:48;101806.28;;;24.51;37.75
27613;BME280;15036;48.094;-1.690;2023-05-02T10:34:17;101814.09;;;24.76;37.45
27613;BME280;15036;48.094;-1.690;2023-05-02T10:36:42;101808.75;;;24.74;37.72
27613;BME280;15036;48.094;-1.690;2023-05-02T10:39:08;101810.53;;;24.85;37.68
27613;BME280;15036;48.094;-1.690;2023-05-02T10:41:34;101811.47;;;25.01;37.47
27613;BME280;15036;48.094;-1.690;2023-05-02T10:44:01;101807.47;;;24.92;36.87
27613;BME280;15036;48.094;-1.690;2023-05-02T10:46:36;101804.88;;;25.22;36.72
27613;BME280;15036;48.094;-1.690;2023-05-02T10:49:08;101809.59;;;25.17;36.75
27613;BME280;15036;48.094;-1.690;2023-05-02T10:51:35;101801.78;;;25.19;36.80
27613;BME280;15036;48.094;-1.690;2023-05-02T10:54:23;101806.75;;;25.48;36.03
27613;BME280;15036;48.094;-1.690;2023-05-02T10:59:32;101792.56;;;25.18;35.96
27613;BME280;15036;48.094;-1.690;2023-05-02T11:01:58;101802.25;;;25.47;35.43
27613;BME280;15036;48.094;-1.690;2023-05-02T11:04:24;101805.13;;;25.67;35.08
27613;BME280;15036;48.094;-1.690;2023-05-02T11:11:47;101803.63;;;26.07;34.87
27613;BME280;15036;48.094;-1.690;2023-05-02T11:25:02;101792.75;;;26.30;34.03
27613;BME280;15036;48.094;-1.690;2023-05-02T11:27:49;101785.75;;;26.38;34.25
27613;BME280;15036;48.094;-1.690;2023-05-02T11:30:35;101798.63;;;26.39;34.07
27613;BME280;15036;48.094;-1.690;2023-05-02T11:35:29;101782.41;;;26.36;33.31
27613;BME280;15036;48.094;-1.690;2023-05-02T11:38:00;101785.47;;;26.54;33.28
27613;BME280;15036;48.094;-1.690;2023-05-02T11:40:29;101788.56;;;26.88;33.18
27613;BME280;15036;48.094;-1.690;2023-05-02T11:42:56;101788.44;;;27.43;32.98
27613;BME280;15036;48.094;-1.690;2023-05-02T11:45:31;101782.78;;;27.59;32.29
27613;BME280;15036;48.094;-1.690;2023-05-02T11:47:57;101790.91;;;27.65;31.85
27613;BME280;15036;48.094;-1.690;2023-05-02T11:50:23;101782.09;;;27.87;31.56
27613;BME280;15036;48.094;-1.690;2023-05-02T11:52:50;101784.06;;;27.81;31.83
27613;BME280;15036;48.094;-1.690;2023-05-02T11:55:15;101784.09;;;28.25;30.98
27613;BME280;15036;48.094;-1.690;2023-05-02T11:57:41;101788.25;;;28.38;30.11
27613;BME280;15036;48.094;-1.690;2023-05-02T12:00:07;101798.69;;;27.73;31.28
27613;BME280;15036;48.094;-1.690;2023-05-02T12:02:39;101787.44;;;27.83;31.19
27613;BME280;15036;48.094;-1.690;2023-05-02T12:05:06;101797.75;;;27.39;31.89
27613;BME280;15036;48.094;-1.690;2023-05-02T12:07:55;101784.59;;;27.98;30.79
27613;BME280;15036;48.094;-1.690;2023-05-02T12:10:21;101780.44;;;27.81;30.62
27613;BME280;15036;48.094;-1.690;2023-05-02T12:12:46;101784.03;;;28.35;29.90
27613;BME280;15036;48.094;-1.690;2023-05-02T12:15:12;101776.13;;;28.42;29.29
27613;BME280;15036;48.094;-1.690;2023-05-02T12:17:45;101779.69;;;28.58;28.98
27613;BME280;15036;48.094;-1.690;2023-05-02T12:20:11;101788.50;;;28.75;29.31
27613;BME280;15036;48.094;-1.690;2023-05-02T12:22:36;101784.44;;;29.20;28.57
27613;BME280;15036;48.094;-1.690;2023-05-02T12:25:05;101785.44;;;29.29;27.98
27613;BME280;15036;48.094;-1.690;2023-05-02T12:27:31;101791.81;;;29.10;28.41
27613;BME280;15036;48.094;-1.690;2023-05-02T12:30:02;101788.47;;;28.80;28.82
27613;BME280;15036;48.094;-1.690;2023-05-02T12:32:32;101789.09;;;29.76;27.65
27613;BME280;15036;48.094;-1.690;2023-05-02T12:34:58;101782.06;;;30.16;27.49
27613;BME280;15036;48.094;-1.690;2023-05-02T12:37:25;101770.59;;;30.63;26.73
27613;BME280;15036;48.094;-1.690;2023-05-02T12:39:51;101765.13;;;30.53;26.67
27613;BME280;15036;48.094;-1.690;2023-05-02T12:42:19;101770.50;;;31.01;26.13
27613;BME280;15036;48.094;-1.690;2023-05-02T12:44:47;101765.00;;;31.50;26.01
27613;BME280;15036;48.094;-1.690;2023-05-02T12:47:14;101756.94;;;31.71;25.33
27613;BME280;15036;48.094;-1.690;2023-05-02T12:49:56;101766.28;;;32.20;24.66
27613;BME280;15036;48.094;-1.690;2023-05-02T12:52:47;101769.44;;;32.19;24.06
27613;BME280;15036;48.094;-1.690;2023-05-02T12:55:17;101770.84;;;31.81;24.44
27613;BME280;15036;48.094;-1.690;2023-05-02T12:57:43;101766.84;;;32.31;24.73
27613;BME280;15036;48.094;-1.690;2023-05-02T13:00:09;101765.03;;;32.49;23.84
27613;BME280;15036;48.094;-1.690;2023-05-02T13:02:34;101768.09;;;32.61;23.92
27613;BME280;15036;48.094;-1.690;2023-05-02T13:05:00;101762.59;;;32.86;23.66
27613;BME280;15036;48.094;-1.690;2023-05-02T13:07:26;101754.72;;;33.36;22.92
27613;BME280;15036;48.094;-1.690;2023-05-02T13:09:52;101747.53;;;33.69;22.67
27613;BME280;15036;48.094;-1.690;2023-05-02T13:12:17;101751.13;;;33.13;23.20